Wildrose, ND (58795)

1:39 PM CST on November 28, 2014 (GMT -0600)
KNDALAMO3 | Change Station
CLOSE
Current Station
Personal Weather Station
Location: Alamo, ND
Elevation: 2090 ft
Nearby Weather Stations

Elev 2090 ft 48.49 °N, 103.51 °W | Updated 9 minutes ago

Overcast
Overcast
18.7 °F
Feels Like 6 °F
N
12.0
Wind Variable Wind from SE
Gusts 17.0 mph

Today
High -- | Low -- °F
--% Chance of Precip.
Yesterday
High -- | Low -- °F
Precip. -- in
8:20 AM 5:01 PM
Waxing Crescent, 43% visible
Pressure 29.58 in
Visibility 8.0 miles
Clouds Overcast 800 ft
Windchill 6 °F
Dew Point 16 °F
Humidity 90%
Rainfall 0.00 in
Snow Depth Not available.
UV 0.9 out of 12
Pollen .10 out of 12
Air Quality Not available.
Flu Activity Not available.
METAR KD60 281915Z AUTO 14010G16KT 8SM OVC008 M09/M09 A2958 RMK AO2

More Conditions Fewer Conditions

Pressure 29.58 in
Visibility 8.0 miles
Clouds Overcast 800 ft
Windchill 6 °F
Dew Point 16 °F
Humidity 90%
Rainfall 0.00 in
Snow Depth Not available.
UV 0.9 out of 12
Pollen .10 out of 12
Air Quality Not available.
Flu Activity Not available.
METAR KD60 281915Z AUTO 14010G16KT 8SM OVC008 M09/M09 A2958 RMK AO2

More Conditions Fewer Conditions

10-Day Weather Forecast

Almanac

Astronomy

Nov. 28, 2014 Rise Set
Actual Time
Civil Twilight
Nautical Twilight
Astronomical Twilight
Moon
Length of Visible Light
Length of Day
Tomorrow will be .
, % of the Moon is Illuminated

Today's Extremes

State Highs State Lows

Community

WunderPhotos

Upload Photos

1,774,267 photos uploaded!

WunderBlogs® & News

Nearby

Air Quality

  Air Quality AQ Index Pollutant
Not available.

Snow Depth

Station Depth Elevation

Earthquake Activity

City Distance Mag. Time & Date
Minimum magnitude displayed is 2.5.

Coastal Water Temperatures

Place Temperature

Nearby Weather Stations